createdAt,value
2018-09-30T00:00:32.477Z,81.30
2018-09-30T00:03:00.689Z,80.90
2018-09-30T00:05:28.893Z,80.80
2018-09-30T00:07:57.128Z,80.70
2018-09-30T00:10:25.300Z,81.40
2018-09-30T00:12:53.484Z,82.20
2018-09-30T00:15:21.724Z,82.20
2018-09-30T00:17:49.912Z,82.40
2018-09-30T00:20:18.140Z,82.30
2018-09-30T00:22:46.374Z,82.60
2018-09-30T00:25:20.124Z,82.50
2018-09-30T00:27:48.348Z,82.80
2018-09-30T00:30:16.569Z,82.70
2018-09-30T00:32:44.787Z,83.00
2018-09-30T00:35:13.008Z,82.50
2018-09-30T00:37:41.170Z,82.50
2018-09-30T00:40:09.414Z,82.10
2018-09-30T00:42:37.634Z,82.20
2018-09-30T00:45:05.873Z,82.50
2018-09-30T00:47:34.089Z,82.50
2018-09-30T00:50:02.353Z,81.90
2018-09-30T00:52:30.541Z,81.90
2018-09-30T00:54:58.749Z,82.30
2018-09-30T00:57:26.992Z,82.20
2018-09-30T00:59:55.188Z,82.20
2018-09-30T01:02:23.384Z,82.00
2018-09-30T01:04:51.593Z,82.10
2018-09-30T01:07:19.754Z,81.50
2018-09-30T01:09:47.948Z,81.80
2018-09-30T01:12:16.127Z,82.60
2018-09-30T01:14:44.400Z,82.30
2018-09-30T01:17:12.687Z,82.10
2018-09-30T01:19:40.908Z,82.20
2018-09-30T01:22:09.157Z,82.30
2018-09-30T01:24:37.312Z,83.20
2018-09-30T01:27:05.529Z,83.50
2018-09-30T01:29:33.741Z,84.10
2018-09-30T01:32:01.897Z,84.00
2018-09-30T01:34:30.089Z,84.00
2018-09-30T01:36:58.254Z,84.20
2018-09-30T01:39:26.466Z,84.30
2018-09-30T01:41:54.685Z,84.60
2018-09-30T01:44:22.863Z,84.60
2018-09-30T01:46:51.082Z,84.50
2018-09-30T01:49:19.290Z,85.40
2018-09-30T01:51:57.289Z,84.80
2018-09-30T01:54:25.465Z,85.10
2018-09-30T01:56:53.654Z,85.50
2018-09-30T01:59:21.837Z,85.90
2018-09-30T02:01:50.056Z,86.10
2018-09-30T02:04:18.260Z,86.40
2018-09-30T02:06:46.449Z,86.10
2018-09-30T02:09:14.649Z,86.30
2018-09-30T02:11:42.843Z,86.90
2018-09-30T02:14:11.034Z,86.60
2018-09-30T02:16:39.248Z,86.90
2018-09-30T02:19:07.475Z,86.60
2018-09-30T02:21:35.701Z,86.80
2018-09-30T02:24:03.889Z,86.70
2018-09-30T02:26:32.085Z,86.60
2018-09-30T02:29:00.279Z,86.50
2018-09-30T02:31:28.468Z,86.60
2018-09-30T02:33:56.698Z,86.90
2018-09-30T02:36:24.866Z,87.30
2018-09-30T02:38:53.071Z,87.70
2018-09-30T02:41:21.321Z,87.50
2018-09-30T02:43:49.513Z,87.60
2018-09-30T02:46:17.741Z,87.20
2018-09-30T02:48:45.897Z,86.80
2018-09-30T02:51:14.088Z,87.20
2018-09-30T02:53:42.261Z,87.10
2018-09-30T02:56:10.476Z,87.20
2018-09-30T02:58:38.689Z,87.10
2018-09-30T03:01:07.113Z,87.10
2018-09-30T03:03:35.320Z,86.90
2018-09-30T03:06:03.485Z,87.20
2018-09-30T03:08:37.223Z,87.10
2018-09-30T03:11:05.486Z,87.20
2018-09-30T03:13:33.705Z,87.60
2018-09-30T03:16:01.861Z,86.70
2018-09-30T03:18:30.101Z,87.20
2018-09-30T03:20:58.301Z,87.00
2018-09-30T03:23:26.465Z,87.00
2018-09-30T03:25:54.673Z,88.60
2018-09-30T03:28:22.849Z,87.80
2018-09-30T03:30:51.081Z,87.80
2018-09-30T03:33:19.285Z,87.90
2018-09-30T03:35:47.436Z,88.30
2018-09-30T03:38:15.621Z,88.50
2018-09-30T03:40:43.776Z,88.40
2018-09-30T03:43:11.965Z,88.10
2018-09-30T03:45:40.145Z,88.30
2018-09-30T03:48:08.301Z,88.10
2018-09-30T03:50:36.485Z,88.40
2018-09-30T03:53:04.669Z,88.20
2018-09-30T03:55:32.894Z,88.20
2018-09-30T03:58:01.090Z,89.00
2018-09-30T04:00:29.248Z,88.60
2018-09-30T04:02:57.449Z,88.60
2018-09-30T04:05:25.662Z,88.50
2018-09-30T04:07:53.869Z,89.10
2018-09-30T04:10:22.070Z,89.00
2018-09-30T04:12:50.257Z,88.90
2018-09-30T04:15:18.474Z,88.70
2018-09-30T04:17:46.701Z,89.50
2018-09-30T04:20:14.961Z,89.70
2018-09-30T04:22:43.167Z,89.80
2018-09-30T04:25:11.329Z,89.70
2018-09-30T04:27:39.529Z,89.70
2018-09-30T04:30:07.733Z,89.60
2018-09-30T04:32:35.925Z,89.30
2018-09-30T04:35:04.160Z,89.90
2018-09-30T04:37:32.350Z,89.80
2018-09-30T04:40:00.638Z,90.60
2018-09-30T04:42:28.803Z,90.00
2018-09-30T04:44:57.000Z,90.90
2018-09-30T04:47:25.233Z,90.50
2018-09-30T04:49:56.522Z,91.00
2018-09-30T04:52:24.657Z,91.10
2018-09-30T04:54:52.866Z,91.10
2018-09-30T04:57:21.053Z,91.20
2018-09-30T04:59:49.271Z,91.30
2018-09-30T05:02:17.513Z,90.60
2018-09-30T05:04:45.717Z,90.10
2018-09-30T05:07:13.977Z,89.80
2018-09-30T05:09:42.193Z,89.70
2018-09-30T05:12:10.359Z,90.00
2018-09-30T05:14:38.661Z,89.60
2018-09-30T05:17:06.821Z,89.60
2018-09-30T05:19:35.033Z,89.80
2018-09-30T05:22:03.336Z,89.60
2018-09-30T05:24:31.561Z,90.50
2018-09-30T05:26:59.769Z,90.60
2018-09-30T05:29:28.049Z,90.50
2018-09-30T05:31:56.214Z,90.40
2018-09-30T05:34:24.549Z,90.20
2018-09-30T05:36:52.713Z,90.00
2018-09-30T05:39:20.933Z,89.80
2018-09-30T05:41:49.132Z,89.80
2018-09-30T05:44:17.313Z,89.60
2018-09-30T05:46:45.525Z,89.70
2018-09-30T05:49:13.718Z,89.90
2018-09-30T05:51:41.921Z,90.20
2018-09-30T05:54:10.133Z,89.90
2018-09-30T05:56:38.334Z,89.60
2018-09-30T05:59:06.541Z,88.60
2018-09-30T06:01:34.706Z,89.50
2018-09-30T06:04:03.013Z,88.60
2018-09-30T06:06:31.193Z,87.60
2018-09-30T06:08:59.363Z,87.10
2018-09-30T06:11:27.611Z,87.00
2018-09-30T06:13:55.879Z,87.60
2018-09-30T06:16:24.053Z,86.50
2018-09-30T06:18:52.437Z,85.30
2018-09-30T06:21:20.698Z,83.70
2018-09-30T06:23:55.735Z,82.70
2018-09-30T06:26:24.462Z,82.30
2018-09-30T06:28:53.516Z,82.60
2018-09-30T06:31:21.757Z,81.90
2018-09-30T06:33:49.953Z,80.70
2018-09-30T06:36:18.183Z,81.20
2018-09-30T06:38:46.365Z,80.90
2018-09-30T06:41:14.583Z,80.90
2018-09-30T06:43:42.773Z,82.00
2018-09-30T06:46:10.984Z,82.70
2018-09-30T06:48:39.291Z,81.20
2018-09-30T06:51:07.517Z,81.30
2018-09-30T06:53:35.733Z,81.10
2018-09-30T06:56:03.925Z,80.40
2018-09-30T06:58:32.158Z,81.00
2018-09-30T07:01:00.410Z,81.10
2018-09-30T07:03:28.598Z,80.10
2018-09-30T07:05:56.813Z,80.80
2018-09-30T07:08:24.989Z,80.70
2018-09-30T07:10:53.299Z,80.80
2018-09-30T07:13:21.484Z,80.80
2018-09-30T07:15:49.796Z,81.10
2018-09-30T07:18:18.006Z,79.70
2018-09-30T07:20:46.241Z,79.20
2018-09-30T07:23:14.580Z,79.10
2018-09-30T07:25:42.760Z,78.50
2018-09-30T07:28:10.949Z,79.20
2018-09-30T07:30:39.112Z,78.90
2018-09-30T07:33:07.322Z,79.00
2018-09-30T07:35:35.574Z,79.20
2018-09-30T07:38:03.770Z,79.40
2018-09-30T07:40:31.989Z,79.50
2018-09-30T07:43:00.230Z,79.30
2018-09-30T07:45:28.453Z,79.20
2018-09-30T07:47:56.680Z,78.50
2018-09-30T07:50:24.920Z,78.20
2018-09-30T07:52:53.121Z,78.50
2018-09-30T07:55:21.325Z,78.80
2018-09-30T07:57:49.593Z,79.70
2018-09-30T08:00:17.777Z,80.60
2018-09-30T08:02:45.988Z,80.80
2018-09-30T08:05:14.217Z,81.10
2018-09-30T08:07:42.385Z,79.70
2018-09-30T08:10:10.594Z,80.00
2018-09-30T08:12:38.773Z,79.90
2018-09-30T08:15:07.025Z,81.50
2018-09-30T08:17:35.218Z,81.90
2018-09-30T08:20:03.437Z,82.20
2018-09-30T08:22:31.682Z,80.80
2018-09-30T08:24:59.877Z,80.10
2018-09-30T08:27:28.101Z,79.80
2018-09-30T08:29:56.406Z,78.70
2018-09-30T08:32:24.581Z,78.00
2018-09-30T08:34:52.837Z,78.00
2018-09-30T08:37:26.410Z,78.20
2018-09-30T08:39:54.660Z,78.40
2018-09-30T08:42:22.948Z,78.00
2018-09-30T08:44:51.134Z,78.50
2018-09-30T08:47:19.458Z,78.50
2018-09-30T08:49:47.583Z,78.10
2018-09-30T08:52:15.777Z,78.30
2018-09-30T08:54:43.985Z,77.80
2018-09-30T08:57:12.153Z,77.70
2018-09-30T08:59:40.394Z,77.40
2018-09-30T09:02:08.633Z,76.40
2018-09-30T09:04:36.885Z,76.80
2018-09-30T09:07:05.109Z,76.80
2018-09-30T09:09:33.286Z,77.70
2018-09-30T09:12:01.496Z,78.20
2018-09-30T09:14:29.661Z,77.40
2018-09-30T09:16:57.889Z,78.00
2018-09-30T09:19:26.244Z,78.00
2018-09-30T09:21:54.502Z,79.00
2018-09-30T09:24:22.919Z,78.90
2018-09-30T09:26:51.316Z,78.50
2018-09-30T09:29:19.518Z,77.50
2018-09-30T09:31:47.929Z,77.10
2018-09-30T09:34:16.078Z,77.50
2018-09-30T09:36:44.325Z,77.00
2018-09-30T09:39:12.613Z,77.10
2018-09-30T09:41:40.816Z,77.90
2018-09-30T09:44:09.176Z,78.30
2018-09-30T09:46:37.518Z,78.50
2018-09-30T09:49:05.864Z,77.70
2018-09-30T09:51:34.105Z,78.30
2018-09-30T09:54:02.291Z,78.70
2018-09-30T09:56:30.512Z,77.80
2018-09-30T09:58:58.740Z,77.20
2018-09-30T10:01:26.932Z,77.00
2018-09-30T10:03:55.093Z,76.80
2018-09-30T10:06:23.298Z,77.70
2018-09-30T10:08:51.518Z,77.90
2018-09-30T10:11:19.699Z,77.20
2018-09-30T10:13:47.928Z,76.30
2018-09-30T10:16:16.113Z,76.90
2018-09-30T10:18:44.329Z,77.20
2018-09-30T10:21:12.542Z,77.50
2018-09-30T10:23:40.713Z,76.90
2018-09-30T10:26:08.945Z,76.90
2018-09-30T10:28:37.787Z,77.10
2018-09-30T10:31:06.443Z,77.10
2018-09-30T10:33:34.752Z,77.10
2018-09-30T10:36:03.102Z,76.90
2018-09-30T10:38:31.502Z,77.00
2018-09-30T10:40:59.754Z,76.70
2018-09-30T10:43:28.097Z,76.10
2018-09-30T10:45:56.780Z,75.90
2018-09-30T10:48:25.098Z,76.90
2018-09-30T10:50:54.967Z,76.10
2018-09-30T10:53:23.211Z,75.70
2018-09-30T10:55:51.605Z,76.10
2018-09-30T10:58:20.010Z,76.10
2018-09-30T11:00:54.971Z,76.50
2018-09-30T11:03:23.385Z,75.70
2018-09-30T11:05:51.585Z,75.30
2018-09-30T11:08:19.881Z,75.10
2018-09-30T11:10:48.103Z,75.10
2018-09-30T11:13:16.825Z,75.80
2018-09-30T11:15:45.097Z,73.80
2018-09-30T11:18:13.305Z,74.50
2018-09-30T11:20:41.484Z,74.40
2018-09-30T11:23:09.682Z,74.70
2018-09-30T11:25:37.837Z,74.50
2018-09-30T11:28:06.147Z,74.60
2018-09-30T11:30:34.332Z,73.90
2018-09-30T11:33:02.516Z,73.30
2018-09-30T11:35:30.669Z,73.50
2018-09-30T11:37:58.863Z,73.90
2018-09-30T11:40:27.041Z,73.40
2018-09-30T11:42:55.233Z,73.50
2018-09-30T11:45:23.542Z,73.50
2018-09-30T11:47:51.760Z,74.10
2018-09-30T11:50:19.968Z,73.40
2018-09-30T11:52:48.228Z,74.10
2018-09-30T11:55:16.477Z,72.40
2018-09-30T11:57:44.730Z,74.30
2018-09-30T12:00:12.939Z,72.30
2018-09-30T12:02:41.177Z,73.30
2018-09-30T12:05:09.378Z,72.80
2018-09-30T12:07:37.593Z,72.30
2018-09-30T12:10:05.922Z,71.70
2018-09-30T12:12:34.126Z,71.10
2018-09-30T12:15:02.366Z,71.50
2018-09-30T12:17:30.548Z,71.10
2018-09-30T12:19:58.995Z,72.00
2018-09-30T12:22:27.253Z,71.50
2018-09-30T12:24:55.486Z,71.50
2018-09-30T12:27:23.781Z,71.50
2018-09-30T12:29:52.030Z,71.70
2018-09-30T12:32:20.485Z,71.50
2018-09-30T12:34:48.713Z,72.70
2018-09-30T12:37:16.957Z,72.10
2018-09-30T12:39:45.257Z,71.80
2018-09-30T12:42:13.500Z,72.30
2018-09-30T12:44:41.737Z,71.90
2018-09-30T12:47:09.989Z,72.70
2018-09-30T12:49:38.242Z,72.60
2018-09-30T12:52:06.478Z,72.00
2018-09-30T12:54:34.734Z,71.00
2018-09-30T12:57:02.967Z,71.50
2018-09-30T12:59:31.198Z,70.40
2018-09-30T13:01:59.457Z,70.40
2018-09-30T13:04:27.977Z,69.80
2018-09-30T13:06:56.731Z,70.90
2018-09-30T13:09:24.941Z,70.80
2018-09-30T13:11:53.163Z,70.50
2018-09-30T13:14:21.371Z,71.30
2018-09-30T13:16:49.657Z,71.70
2018-09-30T13:19:17.907Z,70.20
2018-09-30T13:21:46.139Z,70.30
2018-09-30T13:24:14.375Z,70.30
2018-09-30T13:26:42.577Z,70.50
2018-09-30T13:29:10.894Z,70.50
2018-09-30T13:31:39.114Z,71.20
2018-09-30T13:34:07.817Z,71.70
2018-09-30T13:36:36.046Z,70.90
2018-09-30T13:39:06.822Z,70.40
2018-09-30T13:41:35.033Z,70.70
2018-09-30T13:44:03.217Z,71.50
2018-09-30T13:46:31.464Z,72.30
2018-09-30T13:48:59.694Z,72.30
2018-09-30T13:51:27.925Z,71.40
2018-09-30T13:53:56.105Z,71.80
2018-09-30T13:56:24.399Z,72.20
2018-09-30T13:58:52.593Z,72.20
2018-09-30T14:01:20.821Z,72.00
2018-09-30T14:03:49.729Z,71.10
2018-09-30T14:06:18.050Z,71.00
2018-09-30T14:08:46.313Z,71.50
2018-09-30T14:11:14.506Z,70.30
2018-09-30T14:13:43.670Z,70.90
2018-09-30T14:16:11.897Z,71.60
2018-09-30T14:18:40.065Z,71.90
2018-09-30T14:21:08.288Z,70.60
2018-09-30T14:23:36.848Z,70.60
2018-09-30T14:26:05.789Z,70.20
2018-09-30T14:28:34.093Z,70.30
2018-09-30T14:31:02.357Z,70.90
2018-09-30T14:33:30.557Z,71.30
2018-09-30T14:35:58.761Z,72.00
2018-09-30T14:38:27.010Z,72.70
2018-09-30T14:40:55.231Z,72.50
2018-09-30T14:43:23.486Z,73.30
2018-09-30T14:45:51.713Z,73.70
2018-09-30T14:48:20.025Z,73.90
2018-09-30T14:50:48.231Z,72.70
2018-09-30T14:53:16.478Z,72.60
2018-09-30T14:55:44.749Z,73.80
2018-09-30T14:58:12.934Z,73.60
2018-09-30T15:00:41.165Z,72.60
2018-09-30T15:03:09.385Z,73.70
2018-09-30T15:05:37.617Z,74.00
2018-09-30T15:08:05.798Z,73.70
2018-09-30T15:10:34.233Z,72.80
2018-09-30T15:13:02.484Z,73.10
2018-09-30T15:15:30.699Z,73.70
2018-09-30T15:17:58.934Z,73.60
2018-09-30T15:20:27.102Z,73.80
2018-09-30T15:22:55.354Z,73.70
2018-09-30T15:25:23.577Z,74.10
2018-09-30T15:27:51.825Z,74.50
2018-09-30T15:30:20.136Z,74.70
2018-09-30T15:32:48.380Z,75.20
2018-09-30T15:35:16.632Z,74.50
2018-09-30T15:37:44.807Z,74.10
2018-09-30T15:40:13.020Z,74.10
2018-09-30T15:42:41.264Z,74.70
2018-09-30T15:45:09.776Z,75.20
2018-09-30T15:47:37.960Z,75.90
2018-09-30T15:50:06.569Z,76.40
2018-09-30T15:52:34.870Z,76.90
2018-09-30T15:55:03.138Z,77.20
2018-09-30T15:57:31.376Z,77.60
2018-09-30T15:59:59.574Z,78.50
2018-09-30T16:02:27.786Z,78.60
2018-09-30T16:04:56.022Z,79.00
2018-09-30T16:07:24.221Z,79.80
2018-09-30T16:09:52.481Z,79.80
2018-09-30T16:12:20.753Z,80.40
2018-09-30T16:14:49.000Z,80.60
2018-09-30T16:17:17.237Z,81.30
2018-09-30T16:19:45.475Z,81.70
2018-09-30T16:22:13.990Z,82.30
2018-09-30T16:24:42.248Z,82.10
2018-09-30T16:27:10.870Z,82.50
2018-09-30T16:29:39.077Z,82.60
2018-09-30T16:32:07.314Z,83.70
2018-09-30T16:34:35.521Z,83.60
2018-09-30T16:37:03.785Z,84.50
2018-09-30T16:39:31.968Z,84.40
2018-09-30T16:42:00.185Z,84.30
2018-09-30T16:44:28.441Z,84.50
2018-09-30T16:46:56.632Z,84.10
2018-09-30T16:49:24.974Z,84.10
2018-09-30T16:51:53.282Z,84.80
2018-09-30T16:54:21.503Z,85.10
2018-09-30T16:56:49.799Z,85.30
2018-09-30T16:59:18.047Z,85.20
2018-09-30T17:01:46.281Z,85.90
2018-09-30T17:04:14.487Z,87.00
2018-09-30T17:06:42.772Z,86.70
2018-09-30T17:09:10.986Z,86.70
2018-09-30T17:11:39.221Z,86.50
2018-09-30T17:14:07.444Z,86.50
2018-09-30T17:16:35.661Z,86.50
2018-09-30T17:19:03.873Z,86.60
2018-09-30T17:21:32.109Z,86.70
2018-09-30T17:24:00.296Z,86.60
2018-09-30T17:26:28.536Z,86.80
2018-09-30T17:28:56.742Z,87.10
2018-09-30T17:31:24.960Z,87.00
2018-09-30T17:33:53.172Z,87.80
2018-09-30T17:36:21.441Z,88.10
2018-09-30T17:38:49.669Z,88.40
2018-09-30T17:41:17.881Z,88.40
2018-09-30T17:43:47.109Z,88.50
2018-09-30T17:46:15.298Z,88.80
2018-09-30T17:48:43.524Z,88.60
2018-09-30T17:51:11.756Z,88.80
2018-09-30T17:53:39.976Z,88.80
2018-09-30T17:56:08.201Z,88.80
2018-09-30T17:58:36.394Z,89.00
2018-09-30T18:01:04.628Z,89.30
2018-09-30T18:03:32.868Z,89.60
2018-09-30T18:06:01.385Z,90.10
2018-09-30T18:08:29.584Z,90.80
2018-09-30T18:10:57.835Z,91.00
2018-09-30T18:13:26.026Z,91.30
2018-09-30T18:15:54.259Z,91.30
2018-09-30T18:18:22.481Z,91.40
2018-09-30T18:20:50.711Z,91.30
2018-09-30T18:23:18.915Z,91.20
2018-09-30T18:25:47.133Z,91.10
2018-09-30T18:28:15.453Z,91.10
2018-09-30T18:30:43.708Z,91.10
2018-09-30T18:33:12.007Z,91.40
2018-09-30T18:35:40.253Z,91.40
2018-09-30T18:38:08.465Z,91.80
2018-09-30T18:40:42.365Z,91.20
2018-09-30T18:43:10.933Z,91.00
2018-09-30T18:45:39.158Z,91.10
2018-09-30T18:48:07.892Z,91.70
2018-09-30T18:50:36.109Z,92.00
2018-09-30T18:53:04.361Z,92.50
2018-09-30T18:55:32.576Z,92.30
2018-09-30T18:58:00.834Z,92.20
2018-09-30T19:00:29.225Z,92.20
2018-09-30T19:02:57.385Z,92.00
2018-09-30T19:05:25.617Z,91.90
2018-09-30T19:07:54.084Z,92.20
2018-09-30T19:10:22.258Z,92.30
2018-09-30T19:12:51.813Z,92.40
2018-09-30T19:15:19.996Z,93.10
2018-09-30T19:17:49.403Z,92.90
2018-09-30T19:20:19.567Z,92.70
2018-09-30T19:22:48.119Z,92.80
2018-09-30T19:25:16.707Z,92.80
2018-09-30T19:27:46.914Z,92.80
2018-09-30T19:30:15.761Z,92.90
2018-09-30T19:32:43.898Z,93.00
2018-09-30T19:35:12.096Z,92.80
2018-09-30T19:37:40.306Z,92.80
2018-09-30T19:40:08.585Z,92.60
2018-09-30T19:42:36.766Z,92.40
2018-09-30T19:45:05.342Z,92.50
2018-09-30T19:47:33.564Z,92.70
2018-09-30T19:50:01.721Z,92.70
2018-09-30T19:52:29.932Z,92.70
2018-09-30T19:54:58.087Z,92.80
2018-09-30T19:57:26.288Z,92.80
2018-09-30T19:59:54.509Z,93.00
2018-09-30T20:02:22.686Z,93.00
2018-09-30T20:04:50.893Z,93.00
2018-09-30T20:07:19.081Z,93.00
2018-09-30T20:09:47.333Z,93.10
2018-09-30T20:12:15.535Z,92.90
2018-09-30T20:14:43.700Z,92.90
2018-09-30T20:17:11.977Z,92.90
2018-09-30T20:19:40.157Z,92.80
2018-09-30T20:22:10.001Z,92.90
2018-09-30T20:24:38.209Z,93.20
2018-09-30T20:27:06.461Z,93.10
2018-09-30T20:29:35.074Z,93.20
2018-09-30T20:32:03.405Z,93.50
2018-09-30T20:34:31.716Z,93.60
2018-09-30T20:37:00.370Z,93.70
2018-09-30T20:39:29.019Z,94.00
2018-09-30T20:41:57.785Z,93.70
2018-09-30T20:44:26.381Z,93.60
2018-09-30T20:46:55.068Z,93.50
2018-09-30T20:49:23.752Z,93.30
2018-09-30T20:51:52.398Z,93.50
2018-09-30T20:54:21.101Z,93.60
2018-09-30T20:56:49.812Z,93.60
2018-09-30T20:59:18.427Z,93.70
2018-09-30T21:01:47.115Z,93.80
2018-09-30T21:04:15.733Z,93.70
2018-09-30T21:06:45.068Z,93.70
2018-09-30T21:09:15.839Z,93.60
2018-09-30T21:11:44.137Z,93.80
2018-09-30T21:14:12.356Z,93.80
2018-09-30T21:16:40.622Z,93.70
2018-09-30T21:19:08.845Z,94.00
2018-09-30T21:21:37.072Z,93.80
2018-09-30T21:24:05.300Z,93.70
2018-09-30T21:26:33.460Z,93.60
2018-09-30T21:29:01.653Z,93.60
2018-09-30T21:31:29.841Z,93.70
2018-09-30T21:33:58.080Z,93.60
2018-09-30T21:36:26.309Z,93.40
2018-09-30T21:38:54.665Z,93.40
2018-09-30T21:41:22.909Z,93.70
2018-09-30T21:43:51.084Z,93.70
2018-09-30T21:46:19.291Z,94.10
2018-09-30T21:48:47.663Z,94.10
2018-09-30T21:51:15.789Z,93.90
2018-09-30T21:53:44.003Z,94.20
2018-09-30T21:56:12.281Z,94.10
2018-09-30T21:58:40.468Z,94.70
2018-09-30T22:01:15.875Z,94.30
2018-09-30T22:03:44.057Z,94.50
2018-09-30T22:06:12.305Z,94.20
2018-09-30T22:08:40.521Z,94.30
2018-09-30T22:11:08.736Z,94.10
2018-09-30T22:13:36.932Z,94.40
2018-09-30T22:16:05.156Z,93.70
2018-09-30T22:18:33.397Z,94.20
2018-09-30T22:21:01.586Z,94.80
2018-09-30T22:23:29.794Z,94.60
2018-09-30T22:25:57.975Z,95.00
2018-09-30T22:28:26.673Z,95.20
2018-09-30T22:30:55.304Z,95.40
2018-09-30T22:33:23.976Z,96.00
2018-09-30T22:35:52.579Z,96.20
2018-09-30T22:38:21.305Z,96.60
2018-09-30T22:40:49.982Z,97.00
2018-09-30T22:43:18.592Z,96.70
2018-09-30T22:45:47.281Z,96.50
2018-09-30T22:48:15.896Z,96.20
2018-09-30T22:50:44.635Z,95.60
2018-09-30T22:53:13.280Z,95.70
2018-09-30T22:55:41.957Z,95.90
2018-09-30T22:58:10.555Z,95.70
2018-09-30T23:00:39.226Z,95.30
2018-09-30T23:03:07.899Z,94.90
2018-09-30T23:05:36.069Z,94.80
2018-09-30T23:08:04.288Z,94.70
2018-09-30T23:10:32.437Z,94.40
2018-09-30T23:13:00.658Z,94.20
2018-09-30T23:15:28.842Z,94.10
2018-09-30T23:17:56.997Z,94.30
2018-09-30T23:20:25.193Z,94.00
2018-09-30T23:22:53.356Z,94.00
2018-09-30T23:25:21.549Z,94.60
2018-09-30T23:27:49.745Z,94.40
2018-09-30T23:30:17.913Z,94.80
2018-09-30T23:32:46.097Z,94.90
2018-09-30T23:35:14.289Z,94.60
2018-09-30T23:37:42.546Z,94.20
2018-09-30T23:40:10.722Z,94.00
2018-09-30T23:42:38.945Z,94.00
2018-09-30T23:45:07.156Z,94.10
2018-09-30T23:47:35.305Z,94.10
2018-09-30T23:50:03.560Z,94.20
2018-09-30T23:52:31.724Z,94.40
2018-09-30T23:54:59.922Z,94.80
2018-09-30T23:57:28.135Z,94.60
2018-09-30T23:59:56.314Z,95.20
